createdAt,value
2022-10-27T00:00:12.646Z,77.88
2022-10-27T00:01:12.658Z,77.78
2022-10-27T00:02:12.678Z,77.78
2022-10-27T00:03:15.467Z,77.78
2022-10-27T00:04:12.629Z,77.78
2022-10-27T00:05:12.625Z,77.78
2022-10-27T00:06:12.557Z,77.68
2022-10-27T00:07:12.570Z,77.68
2022-10-27T00:08:12.559Z,77.68
2022-10-27T00:09:12.548Z,77.68
2022-10-27T00:10:12.540Z,77.68
2022-10-27T00:11:12.512Z,77.68
2022-10-27T00:12:12.506Z,77.68
2022-10-27T00:13:12.512Z,77.68
2022-10-27T00:14:12.491Z,77.58
2022-10-27T00:15:12.519Z,77.58
2022-10-27T00:16:12.455Z,77.68
2022-10-27T00:17:12.454Z,77.58
2022-10-27T00:18:12.445Z,77.58
2022-10-27T00:19:12.416Z,77.58
2022-10-27T00:20:12.406Z,77.58
2022-10-27T00:37:16.990Z,77.17
2022-10-27T00:38:08.803Z,77.08
2022-10-27T00:39:08.810Z,77.08
2022-10-27T00:40:08.782Z,77.08
2022-10-27T00:41:08.795Z,76.97
2022-10-27T00:42:08.784Z,77.08
2022-10-27T00:43:08.786Z,76.97
2022-10-27T00:44:08.756Z,76.97
2022-10-27T00:45:08.739Z,76.97
2022-10-27T00:46:08.728Z,76.97
2022-10-27T00:47:08.719Z,76.97
2022-10-27T00:48:08.719Z,76.97
2022-10-27T00:49:08.689Z,76.87
2022-10-27T00:50:08.695Z,76.87
2022-10-27T00:51:08.709Z,76.87
2022-10-27T00:52:15.692Z,76.87
2022-10-27T00:53:08.724Z,76.87
2022-10-27T00:54:08.630Z,76.87
2022-10-27T00:55:08.627Z,76.77
2022-10-27T00:56:08.618Z,76.77
2022-10-27T00:57:08.612Z,76.77
2022-10-27T00:58:08.602Z,76.67
2022-10-27T00:59:08.611Z,76.67
2022-10-27T01:00:08.573Z,76.67
2022-10-27T01:01:08.683Z,76.67
2022-10-27T01:02:08.547Z,76.67
2022-10-27T01:03:08.529Z,76.67
2022-10-27T01:04:08.526Z,76.67
2022-10-27T01:05:08.531Z,76.57
2022-10-27T01:06:08.511Z,76.57
2022-10-27T01:07:08.495Z,76.57
2022-10-27T01:08:08.490Z,76.57
2022-10-27T01:09:08.464Z,76.57
2022-10-27T01:10:08.459Z,76.57
2022-10-27T01:11:08.457Z,76.47
2022-10-27T01:12:08.518Z,76.47
2022-10-27T01:13:08.425Z,76.47
2022-10-27T01:14:08.396Z,76.47
2022-10-27T01:15:08.397Z,76.37
2022-10-27T01:16:08.393Z,76.37
2022-10-27T01:17:08.393Z,76.37
2022-10-27T01:18:08.373Z,76.37
2022-10-27T01:19:08.382Z,76.37
2022-10-27T01:20:08.362Z,76.27
2022-10-27T01:21:08.351Z,76.27
2022-10-27T01:22:08.325Z,76.27
2022-10-27T01:23:08.310Z,76.27
2022-10-27T01:24:08.303Z,76.27
2022-10-27T01:25:08.299Z,76.27
2022-10-27T01:26:08.290Z,76.17
2022-10-27T01:27:08.289Z,76.17
2022-10-27T01:28:08.246Z,76.20
2022-10-27T01:29:08.271Z,76.20
2022-10-27T01:30:08.238Z,76.20
2022-10-27T01:31:08.238Z,76.20
2022-10-27T01:32:08.259Z,76.10
2022-10-27T01:33:08.206Z,76.10
2022-10-27T01:34:08.200Z,76.10
2022-10-27T01:35:08.198Z,76.10
2022-10-27T01:36:08.180Z,76.10
2022-10-27T01:37:08.158Z,76.10
2022-10-27T01:38:08.145Z,76.10
2022-10-27T01:39:08.149Z,76.00
2022-10-27T01:40:08.139Z,76.00
2022-10-27T01:41:08.119Z,76.00
2022-10-27T01:42:08.096Z,75.90
2022-10-27T01:43:08.118Z,75.90
2022-10-27T01:44:08.075Z,75.90
2022-10-27T01:45:08.082Z,75.80
2022-10-27T01:46:08.056Z,75.80
2022-10-27T01:47:08.059Z,75.90
2022-10-27T01:48:08.060Z,75.80
2022-10-27T01:49:08.030Z,75.80
2022-10-27T01:50:08.013Z,75.80
2022-10-27T01:51:08.016Z,75.80
2022-10-27T01:52:08.002Z,75.80
2022-10-27T01:53:07.988Z,75.80
2022-10-27T01:54:07.978Z,75.80
2022-10-27T01:55:07.954Z,75.70
2022-10-27T01:56:07.947Z,75.70
2022-10-27T01:57:07.947Z,75.70
2022-10-27T01:58:07.936Z,75.70
2022-10-27T01:59:07.919Z,75.70
2022-10-27T02:00:07.912Z,75.70
2022-10-27T02:01:08.044Z,75.60
2022-10-27T02:02:07.889Z,75.60
2022-10-27T02:03:07.856Z,75.60
2022-10-27T02:04:07.853Z,75.60
2022-10-27T02:05:07.847Z,75.60
2022-10-27T02:06:07.866Z,75.60
2022-10-27T02:07:07.836Z,75.60
2022-10-27T02:08:07.813Z,75.60
2022-10-27T02:09:07.798Z,75.50
2022-10-27T02:10:07.811Z,75.50
2022-10-27T02:11:07.798Z,75.50
2022-10-27T02:12:07.783Z,75.40
2022-10-27T02:13:07.787Z,75.40
2022-10-27T02:14:07.768Z,75.40
2022-10-27T02:15:07.759Z,75.40
2022-10-27T02:16:07.723Z,75.30
2022-10-27T02:17:07.714Z,75.30
2022-10-27T02:18:07.692Z,75.40
2022-10-27T02:19:07.714Z,75.40
2022-10-27T02:20:07.695Z,75.40
2022-10-27T02:21:07.688Z,75.40
2022-10-27T02:22:07.675Z,75.30
2022-10-27T02:23:07.654Z,75.30
2022-10-27T02:24:07.631Z,75.30
2022-10-27T02:25:07.643Z,75.20
2022-10-27T02:26:07.623Z,75.20
2022-10-27T02:27:07.618Z,75.20
2022-10-27T02:28:07.590Z,75.30
2022-10-27T02:29:07.584Z,75.30
2022-10-27T02:30:07.573Z,75.20
2022-10-27T02:31:07.559Z,75.10
2022-10-27T02:32:07.557Z,75.10
2022-10-27T02:33:07.545Z,75.20
2022-10-27T02:34:07.534Z,75.20
2022-10-27T02:35:07.544Z,75.20
2022-10-27T02:36:07.515Z,75.20
2022-10-27T02:37:07.504Z,75.20
2022-10-27T02:38:07.520Z,75.20
2022-10-27T02:39:07.486Z,75.20
2022-10-27T02:40:07.452Z,75.20
2022-10-27T02:41:07.438Z,75.20
2022-10-27T02:42:07.458Z,75.20
2022-10-27T02:43:07.442Z,75.20
2022-10-27T02:44:07.445Z,75.10
2022-10-27T02:45:07.432Z,75.10
2022-10-27T02:46:07.399Z,74.99
2022-10-27T02:47:09.900Z,75.10
2022-10-27T02:48:07.367Z,74.99
2022-10-27T02:49:07.376Z,74.99
2022-10-27T02:50:07.362Z,74.99
2022-10-27T02:51:07.337Z,74.99
2022-10-27T02:52:07.362Z,74.99
2022-10-27T02:53:07.321Z,74.99
2022-10-27T02:54:07.312Z,74.99
2022-10-27T02:55:07.293Z,74.99
2022-10-27T02:56:07.302Z,74.99
2022-10-27T02:57:07.273Z,74.69
2022-10-27T02:58:07.257Z,74.90
2022-10-27T02:59:07.271Z,74.90
2022-10-27T03:00:07.246Z,74.99
2022-10-27T03:01:07.340Z,74.99
2022-10-27T03:02:07.327Z,74.99
2022-10-27T03:03:07.197Z,74.99
2022-10-27T03:04:07.202Z,75.10
2022-10-27T03:05:07.286Z,75.10
2022-10-27T03:06:07.180Z,75.20
2022-10-27T03:07:07.158Z,75.20
2022-10-27T03:08:07.145Z,75.20
2022-10-27T03:09:07.142Z,75.30
2022-10-27T03:10:07.174Z,75.30
2022-10-27T03:11:07.108Z,75.30
2022-10-27T03:12:07.112Z,75.30
2022-10-27T03:13:07.101Z,75.30
2022-10-27T03:14:07.075Z,75.30
2022-10-27T03:15:07.057Z,75.30
2022-10-27T03:16:07.097Z,75.30
2022-10-27T03:17:07.046Z,75.40
2022-10-27T03:18:07.050Z,75.40
2022-10-27T03:19:07.015Z,75.50
2022-10-27T03:20:07.009Z,75.50
2022-10-27T03:21:07.012Z,75.60
2022-10-27T03:22:07.020Z,75.60
2022-10-27T03:23:06.997Z,75.60
2022-10-27T03:24:06.981Z,75.60
2022-10-27T03:25:06.957Z,75.60
2022-10-27T03:26:06.947Z,75.70
2022-10-27T03:27:06.950Z,75.70
2022-10-27T03:28:06.951Z,75.80
2022-10-27T03:29:06.905Z,75.70
2022-10-27T03:30:06.918Z,75.80
2022-10-27T03:31:06.886Z,75.80
2022-10-27T03:32:06.898Z,75.80
2022-10-27T03:33:06.857Z,75.80
2022-10-27T03:34:06.872Z,75.80
2022-10-27T03:35:06.841Z,75.90
2022-10-27T03:36:06.824Z,75.90
2022-10-27T03:37:06.838Z,75.90
2022-10-27T03:38:06.810Z,75.90
2022-10-27T03:39:06.809Z,76.00
2022-10-27T03:40:06.824Z,76.00
2022-10-27T03:41:06.789Z,76.00
2022-10-27T03:42:06.788Z,76.00
2022-10-27T03:43:06.753Z,76.00
2022-10-27T03:44:06.758Z,76.00
2022-10-27T03:45:06.747Z,76.10
2022-10-27T03:46:06.756Z,76.10
2022-10-27T03:47:06.716Z,76.10
2022-10-27T03:48:06.716Z,76.20
2022-10-27T03:49:06.692Z,76.20
2022-10-27T03:50:06.715Z,76.20
2022-10-27T03:51:06.663Z,76.20
2022-10-27T03:52:06.662Z,76.31
2022-10-27T03:53:06.641Z,76.31
2022-10-27T03:54:06.640Z,76.31
2022-10-27T03:55:06.638Z,76.31
2022-10-27T03:56:06.647Z,76.40
2022-10-27T03:57:06.597Z,76.40
2022-10-27T03:58:06.594Z,76.40
2022-10-27T03:59:06.596Z,76.40
2022-10-27T04:00:06.582Z,76.51
2022-10-27T04:01:06.629Z,76.51
2022-10-27T04:02:07.400Z,76.51
2022-10-27T04:03:06.554Z,76.51
2022-10-27T04:04:06.544Z,76.51
2022-10-27T04:05:06.528Z,76.51
2022-10-27T04:06:06.503Z,76.61
2022-10-27T04:07:06.493Z,76.61
2022-10-27T04:08:06.571Z,76.64
2022-10-27T04:10:06.452Z,76.61
2022-10-27T04:11:06.441Z,76.71
2022-10-27T04:12:06.441Z,76.71
2022-10-27T04:13:06.441Z,76.71
2022-10-27T04:14:06.437Z,76.75
2022-10-27T04:15:06.403Z,76.84
2022-10-27T04:16:06.394Z,76.84
2022-10-27T04:17:06.407Z,76.81
2022-10-27T04:18:06.391Z,76.81
2022-10-27T04:19:06.390Z,76.84
2022-10-27T04:20:06.365Z,76.81
2022-10-27T04:21:06.354Z,76.81
2022-10-27T04:22:06.338Z,76.84
2022-10-27T04:23:06.312Z,76.84
2022-10-27T04:24:06.346Z,76.91
2022-10-27T04:25:06.292Z,76.91
2022-10-27T04:26:06.295Z,76.91
2022-10-27T04:27:06.284Z,77.01
2022-10-27T04:28:06.289Z,77.01
2022-10-27T04:29:06.283Z,77.01
2022-10-27T04:30:06.261Z,77.04
2022-10-27T04:31:06.276Z,77.01
2022-10-27T04:32:06.240Z,77.01
2022-10-27T04:33:06.231Z,77.01
2022-10-27T04:34:06.229Z,77.04
2022-10-27T04:35:06.177Z,77.15
2022-10-27T04:36:06.187Z,77.11
2022-10-27T04:37:06.178Z,77.15
2022-10-27T04:38:06.168Z,77.15
2022-10-27T04:39:06.146Z,77.15
2022-10-27T04:40:06.134Z,77.15
2022-10-27T04:41:06.141Z,77.15
2022-10-27T04:42:06.134Z,77.15
2022-10-27T04:43:06.088Z,77.11
2022-10-27T04:44:06.110Z,77.15
2022-10-27T04:45:06.100Z,77.15
2022-10-27T04:46:06.097Z,77.15
2022-10-27T04:47:06.085Z,77.25
2022-10-27T04:48:06.058Z,77.25
2022-10-27T04:49:06.043Z,77.25
2022-10-27T04:50:06.025Z,77.25
2022-10-27T04:51:06.009Z,77.25
2022-10-27T04:52:06.039Z,77.35
2022-10-27T04:53:05.992Z,77.35
2022-10-27T04:54:05.969Z,77.35
2022-10-27T04:55:05.989Z,77.35
2022-10-27T04:56:05.959Z,77.35
2022-10-27T04:57:05.940Z,77.35
2022-10-27T04:58:09.299Z,77.35
2022-10-27T04:59:05.922Z,77.35
2022-10-27T05:00:05.899Z,77.35
2022-10-27T05:01:05.928Z,77.35
2022-10-27T05:02:05.973Z,77.35
2022-10-27T05:03:05.959Z,77.35
2022-10-27T05:04:05.892Z,77.45
2022-10-27T05:05:05.880Z,77.45
2022-10-27T05:06:05.852Z,77.45
2022-10-27T05:07:05.831Z,77.45
2022-10-27T05:08:05.836Z,77.55
2022-10-27T05:09:05.812Z,77.55
2022-10-27T05:10:05.802Z,77.55
2022-10-27T05:11:05.783Z,77.55
2022-10-27T05:12:05.780Z,77.66
2022-10-27T05:13:05.776Z,77.66
2022-10-27T05:14:05.751Z,77.66
2022-10-27T05:15:05.755Z,77.66
2022-10-27T05:16:05.737Z,77.62
2022-10-27T05:17:05.797Z,77.66
2022-10-27T05:18:08.049Z,77.75
2022-10-27T05:19:05.703Z,77.75
2022-10-27T05:20:05.686Z,77.75
2022-10-27T05:21:05.688Z,77.75
2022-10-27T05:22:05.659Z,77.75
2022-10-27T05:23:05.671Z,77.86
2022-10-27T05:24:05.638Z,77.86
2022-10-27T05:25:05.626Z,77.86
2022-10-27T05:26:05.623Z,77.86
2022-10-27T05:27:05.601Z,77.95
2022-10-27T05:28:05.650Z,77.95
2022-10-27T05:29:05.597Z,77.95
2022-10-27T05:30:05.576Z,77.95
2022-10-27T05:31:05.578Z,77.95
2022-10-27T05:32:05.554Z,77.95
2022-10-27T05:33:05.551Z,77.95
2022-10-27T05:34:05.536Z,77.95
2022-10-27T05:35:05.540Z,77.95
2022-10-27T05:36:05.506Z,77.95
2022-10-27T05:37:05.513Z,77.95
2022-10-27T05:38:05.497Z,77.95
2022-10-27T05:39:05.495Z,77.95
2022-10-27T05:40:05.475Z,77.95
2022-10-27T05:41:05.479Z,78.06
2022-10-27T05:42:05.460Z,77.95
2022-10-27T05:43:05.433Z,78.06
2022-10-27T05:44:05.435Z,78.06
2022-10-27T05:45:05.426Z,78.06
2022-10-27T05:46:05.441Z,78.06
2022-10-27T05:47:05.411Z,78.16
2022-10-27T05:48:05.432Z,78.16
2022-10-27T05:49:05.368Z,78.16
2022-10-27T05:50:05.356Z,78.16
2022-10-27T05:51:05.370Z,78.16
2022-10-27T05:52:05.353Z,78.16
2022-10-27T05:53:05.334Z,78.16
2022-10-27T05:54:05.346Z,78.16
2022-10-27T05:55:05.294Z,78.16
2022-10-27T05:56:05.295Z,78.16
2022-10-27T05:57:05.290Z,78.16
2022-10-27T05:58:05.293Z,78.16
2022-10-27T05:59:05.279Z,78.26
2022-10-27T06:00:05.250Z,78.26
2022-10-27T06:01:05.292Z,78.26
2022-10-27T06:02:05.322Z,78.26
2022-10-27T06:03:05.229Z,78.26
2022-10-27T06:04:05.237Z,78.26
2022-10-27T06:05:05.214Z,78.26
2022-10-27T06:06:05.172Z,78.36
2022-10-27T06:07:05.174Z,78.36
2022-10-27T06:08:05.189Z,78.36
2022-10-27T06:09:05.146Z,78.36
2022-10-27T06:10:05.147Z,78.36
2022-10-27T06:11:05.144Z,78.46
2022-10-27T06:12:05.138Z,78.46
2022-10-27T06:13:05.107Z,78.46
2022-10-27T06:14:05.105Z,78.46
2022-10-27T06:15:05.082Z,78.46
2022-10-27T06:16:06.256Z,78.46
2022-10-27T06:17:05.073Z,78.46
2022-10-27T06:18:05.061Z,78.46
2022-10-27T06:19:05.042Z,78.56
2022-10-27T06:20:05.011Z,78.56
2022-10-27T06:21:05.010Z,78.56
2022-10-27T06:22:05.014Z,78.56
2022-10-27T06:23:05.001Z,78.56
2022-10-27T06:24:05.048Z,78.56
2022-10-27T06:25:04.976Z,78.56
2022-10-27T06:26:04.965Z,78.56
2022-10-27T06:27:04.942Z,78.56
2022-10-27T06:28:04.939Z,78.56
2022-10-27T06:29:04.944Z,78.66
2022-10-27T06:30:04.938Z,78.66
2022-10-27T06:31:04.914Z,78.66
2022-10-27T06:32:04.898Z,78.66
2022-10-27T06:33:04.894Z,78.66
2022-10-27T06:34:04.875Z,78.66
2022-10-27T06:35:04.872Z,78.66
2022-10-27T06:36:04.839Z,78.66
2022-10-27T06:37:04.857Z,78.66
2022-10-27T06:38:04.842Z,78.66
2022-10-27T06:39:05.409Z,78.66
2022-10-27T06:40:04.861Z,78.66
2022-10-27T06:41:04.803Z,78.66
2022-10-27T06:42:04.843Z,78.76
2022-10-27T06:43:07.690Z,78.76
2022-10-27T06:44:04.749Z,78.76
2022-10-27T06:45:04.791Z,78.76
2022-10-27T06:46:04.738Z,78.76
2022-10-27T06:47:04.731Z,78.76
2022-10-27T06:48:04.731Z,78.76
2022-10-27T06:50:04.683Z,78.86
2022-10-27T06:51:04.686Z,78.86
2022-10-27T06:52:04.681Z,78.86
2022-10-27T06:53:11.713Z,78.86
2022-10-27T06:54:04.635Z,78.86
2022-10-27T06:55:04.627Z,78.86
2022-10-27T06:56:04.642Z,78.86
2022-10-27T06:57:04.616Z,78.86
2022-10-27T06:58:04.633Z,78.86
2022-10-27T06:59:04.601Z,78.86
2022-10-27T07:00:04.648Z,78.86
2022-10-27T07:01:04.659Z,78.86
2022-10-27T07:02:04.653Z,78.86
2022-10-27T07:03:04.620Z,78.86
2022-10-27T07:04:04.542Z,78.86
2022-10-27T07:05:04.530Z,78.96
2022-10-27T07:06:05.338Z,78.96
2022-10-27T07:07:04.524Z,78.96
2022-10-27T07:08:04.517Z,78.96
2022-10-27T07:09:07.212Z,78.96
2022-10-27T07:10:05.480Z,78.96
2022-10-27T07:11:04.485Z,78.96
2022-10-27T07:12:04.457Z,78.96
2022-10-27T07:13:04.451Z,78.96
2022-10-27T07:14:04.446Z,78.96
2022-10-27T07:15:04.431Z,78.96
2022-10-27T07:16:04.419Z,78.96
2022-10-27T07:17:04.406Z,79.06
2022-10-27T07:18:04.908Z,79.06
2022-10-27T07:19:04.384Z,79.06
2022-10-27T07:20:04.367Z,79.06
2022-10-27T07:21:04.344Z,79.16
2022-10-27T07:22:04.349Z,79.16
2022-10-27T07:23:04.502Z,79.16
2022-10-27T07:24:04.328Z,79.27
2022-10-27T07:25:04.358Z,79.27
2022-10-27T07:26:04.281Z,79.27
2022-10-27T07:27:05.537Z,79.36
2022-10-27T07:28:04.289Z,79.36
2022-10-27T07:29:04.343Z,79.36
2022-10-27T07:30:04.251Z,79.36
2022-10-27T07:31:04.263Z,79.47
2022-10-27T07:32:04.243Z,79.47
2022-10-27T07:33:04.208Z,79.47
2022-10-27T07:35:04.204Z,79.47
2022-10-27T07:36:04.184Z,79.47
2022-10-27T07:37:04.184Z,79.47
2022-10-27T07:38:04.163Z,79.47
2022-10-27T07:39:04.155Z,79.47
2022-10-27T07:40:04.146Z,79.47
2022-10-27T07:41:04.147Z,79.47
2022-10-27T07:42:04.131Z,79.47
2022-10-27T07:43:08.026Z,79.47
2022-10-27T07:44:04.099Z,79.47
2022-10-27T07:45:04.101Z,79.47
2022-10-27T07:46:04.145Z,79.57
2022-10-27T07:47:04.070Z,79.57
2022-10-27T07:48:04.060Z,79.47
2022-10-27T07:49:04.039Z,79.57
2022-10-27T07:50:04.032Z,79.57
2022-10-27T07:51:04.011Z,79.57
2022-10-27T07:52:04.015Z,79.67
2022-10-27T07:53:03.993Z,79.67
2022-10-27T07:54:03.998Z,79.67
2022-10-27T07:55:03.972Z,79.67
2022-10-27T07:56:03.963Z,79.67
2022-10-27T07:57:03.966Z,79.67
2022-10-27T07:58:03.956Z,79.67
2022-10-27T07:59:03.972Z,79.57
2022-10-27T08:00:03.899Z,79.67
2022-10-27T08:01:03.962Z,79.67
2022-10-27T08:02:04.026Z,79.67
2022-10-27T08:03:03.880Z,79.67
2022-10-27T08:04:03.864Z,79.67
2022-10-27T08:05:03.905Z,79.77
2022-10-27T08:06:03.843Z,79.77
2022-10-27T08:07:03.859Z,79.77
2022-10-27T08:08:03.841Z,79.77
2022-10-27T08:09:03.842Z,79.77
2022-10-27T08:10:03.808Z,79.77
2022-10-27T08:11:03.803Z,79.77
2022-10-27T08:12:03.817Z,79.77
2022-10-27T08:13:03.819Z,79.87
2022-10-27T08:14:03.757Z,79.87
2022-10-27T08:15:03.750Z,79.87
2022-10-27T08:16:03.741Z,79.87
2022-10-27T08:17:05.061Z,79.87
2022-10-27T08:18:03.751Z,79.87
2022-10-27T08:19:03.699Z,79.97
2022-10-27T08:20:03.699Z,79.87
2022-10-27T08:21:03.690Z,79.87
2022-10-27T08:22:03.673Z,79.87
2022-10-27T08:23:03.678Z,79.83
2022-10-27T08:24:03.725Z,79.83
2022-10-27T08:25:06.037Z,79.83
2022-10-27T08:26:04.636Z,79.93
2022-10-27T08:27:03.616Z,79.93
2022-10-27T08:28:03.593Z,79.93
2022-10-27T08:29:03.624Z,79.93
2022-10-27T08:30:03.599Z,79.93
2022-10-27T08:31:03.589Z,80.04
2022-10-27T08:32:03.555Z,80.24
2022-10-27T08:33:03.562Z,80.33
2022-10-27T08:34:03.611Z,80.33
2022-10-27T08:35:03.521Z,80.44
2022-10-27T08:36:11.037Z,80.44
2022-10-27T08:37:10.536Z,80.44
2022-10-27T08:38:03.522Z,80.54
2022-10-27T08:39:10.981Z,80.54
2022-10-27T08:40:03.456Z,80.54
2022-10-27T08:41:03.469Z,80.54
2022-10-27T08:42:03.428Z,80.54
2022-10-27T08:43:03.447Z,80.54
2022-10-27T08:44:03.450Z,80.54
2022-10-27T08:45:03.409Z,80.64
2022-10-27T08:46:03.418Z,80.64
2022-10-27T08:47:03.396Z,80.54
2022-10-27T08:48:03.391Z,80.64
2022-10-27T08:49:03.413Z,80.54
2022-10-27T08:50:03.383Z,80.54
2022-10-27T08:51:03.360Z,80.54
2022-10-27T08:52:03.337Z,80.44
2022-10-27T08:53:04.935Z,80.44
2022-10-27T08:54:03.407Z,80.33
2022-10-27T08:55:03.297Z,80.33
2022-10-27T08:56:03.278Z,80.33
2022-10-27T08:57:03.278Z,80.33
2022-10-27T08:58:03.289Z,80.33
2022-10-27T08:59:03.251Z,80.24
2022-10-27T09:00:03.249Z,80.24
2022-10-27T09:01:03.282Z,80.33
2022-10-27T09:02:03.406Z,80.24
2022-10-27T09:03:03.215Z,80.33
2022-10-27T09:04:03.209Z,80.33
2022-10-27T09:05:03.204Z,80.33
2022-10-27T09:06:03.206Z,80.33
2022-10-27T09:07:03.166Z,80.33
2022-10-27T09:08:03.200Z,80.64
2022-10-27T09:09:03.145Z,80.64
2022-10-27T09:10:03.152Z,80.64
2022-10-27T09:11:03.141Z,80.64
2022-10-27T09:12:03.115Z,80.64
2022-10-27T09:13:03.119Z,80.54
2022-10-27T09:14:03.162Z,80.54
2022-10-27T09:15:03.107Z,80.44
2022-10-27T09:16:03.081Z,80.94
2022-10-27T09:17:03.053Z,81.75
2022-10-27T09:18:03.045Z,82.56
2022-10-27T09:19:03.053Z,82.96
2022-10-27T09:20:03.028Z,82.86
2022-10-27T09:21:03.027Z,82.92
2022-10-27T09:22:03.019Z,82.71
2022-10-27T09:23:04.308Z,83.02
2022-10-27T09:24:03.010Z,82.62
2022-10-27T09:25:03.657Z,82.92
2022-10-27T09:26:02.970Z,83.22
2022-10-27T09:27:02.955Z,83.62
2022-10-27T09:28:02.976Z,83.72
2022-10-27T09:29:02.956Z,83.93
2022-10-27T09:30:03.702Z,83.72
2022-10-27T09:31:02.931Z,83.72
2022-10-27T09:32:02.900Z,83.93
2022-10-27T09:33:02.888Z,83.93
2022-10-27T09:34:02.884Z,83.72
2022-10-27T09:35:02.888Z,83.32
2022-10-27T09:36:02.842Z,82.71
2022-10-27T09:37:02.848Z,82.31
2022-10-27T09:38:02.835Z,82.11
2022-10-27T09:39:02.862Z,82.01
2022-10-27T09:40:02.815Z,82.01
2022-10-27T09:41:02.800Z,82.31
2022-10-27T09:42:02.794Z,82.21
2022-10-27T09:43:02.761Z,81.91
2022-10-27T09:44:02.771Z,81.71
2022-10-27T09:45:02.751Z,81.41
2022-10-27T09:46:02.763Z,81.21
2022-10-27T09:47:02.712Z,81.41
2022-10-27T09:48:02.726Z,81.41
2022-10-27T09:49:05.545Z,81.30
2022-10-27T09:50:03.709Z,81.01
2022-10-27T09:51:02.671Z,81.10
2022-10-27T09:52:02.670Z,81.10
2022-10-27T09:53:02.667Z,81.01
2022-10-27T09:54:02.698Z,80.80
2022-10-27T09:55:02.635Z,80.70
2022-10-27T09:56:02.636Z,80.80
2022-10-27T09:57:02.612Z,80.80
2022-10-27T09:58:02.624Z,80.80
2022-10-27T09:59:02.659Z,80.70
2022-10-27T10:00:02.575Z,80.70
2022-10-27T10:01:02.564Z,80.60
2022-10-27T10:02:02.598Z,80.60
2022-10-27T10:04:03.761Z,80.50
2022-10-27T10:05:02.520Z,80.50
2022-10-27T10:06:02.512Z,80.50
2022-10-27T10:07:02.508Z,80.50
2022-10-27T10:08:02.504Z,80.50
2022-10-27T10:09:02.527Z,80.50
2022-10-27T10:10:02.495Z,80.40
2022-10-27T10:11:02.479Z,80.40
2022-10-27T10:12:02.482Z,80.40
2022-10-27T10:13:02.464Z,80.30
2022-10-27T10:14:02.456Z,80.30
2022-10-27T10:15:02.433Z,80.30
2022-10-27T10:16:02.409Z,80.20
2022-10-27T10:17:02.481Z,80.20
2022-10-27T10:18:02.398Z,80.10
2022-10-27T10:19:02.371Z,80.10
2022-10-27T10:20:02.369Z,80.00
2022-10-27T10:21:02.381Z,80.00
2022-10-27T10:22:02.359Z,80.00
2022-10-27T10:23:02.342Z,80.00
2022-10-27T10:24:02.316Z,80.00
2022-10-27T10:25:02.319Z,80.00
2022-10-27T10:26:02.331Z,80.00
2022-10-27T10:27:02.277Z,80.00
2022-10-27T10:28:02.291Z,80.00
2022-10-27T10:29:02.263Z,80.00
2022-10-27T10:30:02.262Z,80.00
2022-10-27T10:31:02.256Z,80.10
2022-10-27T10:32:02.255Z,80.50
2022-10-27T10:33:02.241Z,80.60
2022-10-27T10:34:02.230Z,80.66
2022-10-27T10:35:02.229Z,80.77
2022-10-27T10:36:02.271Z,80.87
2022-10-27T10:37:02.194Z,81.07
2022-10-27T10:38:05.166Z,81.07
2022-10-27T10:39:02.155Z,81.37
2022-10-27T10:40:02.167Z,81.47
2022-10-27T10:41:02.150Z,81.37
2022-10-27T10:42:02.164Z,81.27
2022-10-27T10:43:02.131Z,81.17
2022-10-27T10:44:02.110Z,80.97
2022-10-27T10:45:02.100Z,80.77
2022-10-27T10:46:02.082Z,80.46
2022-10-27T10:47:02.066Z,80.36
2022-10-27T10:48:02.061Z,80.26
2022-10-27T10:49:02.047Z,80.16
2022-10-27T10:50:02.041Z,80.06
2022-10-27T10:51:02.017Z,80.06
2022-10-27T10:52:02.030Z,79.96
2022-10-27T10:53:02.013Z,79.96
2022-10-27T10:54:02.032Z,79.86
2022-10-27T10:55:02.015Z,79.76
2022-10-27T10:56:01.985Z,79.76
2022-10-27T10:57:02.011Z,79.76
2022-10-27T10:58:01.963Z,79.76
2022-10-27T10:59:01.988Z,79.76
2022-10-27T11:00:01.926Z,79.76
2022-10-27T11:01:01.961Z,79.86
2022-10-27T11:02:01.955Z,79.96
2022-10-27T11:03:01.883Z,79.86
2022-10-27T11:04:01.876Z,79.96
2022-10-27T11:05:01.956Z,79.96
2022-10-27T11:06:01.908Z,80.06
2022-10-27T11:07:01.904Z,80.06
2022-10-27T11:08:01.837Z,80.16
2022-10-27T11:09:01.839Z,80.16
2022-10-27T11:10:03.591Z,80.12
2022-10-27T11:11:01.813Z,80.12
2022-10-27T11:12:01.796Z,80.22
2022-10-27T11:13:01.804Z,80.22
2022-10-27T11:14:01.785Z,80.32
2022-10-27T11:15:01.764Z,80.32
2022-10-27T11:16:01.774Z,80.32
2022-10-27T11:17:01.752Z,80.32
2022-10-27T11:18:01.732Z,80.32
2022-10-27T11:19:01.746Z,80.43
2022-10-27T11:20:01.727Z,80.43
2022-10-27T11:21:01.711Z,80.43
2022-10-27T11:22:01.743Z,80.52
2022-10-27T11:23:01.683Z,80.49
2022-10-27T11:24:01.676Z,80.49
2022-10-27T11:25:01.673Z,80.49
2022-10-27T11:26:01.633Z,80.49
2022-10-27T11:27:01.637Z,80.49
2022-10-27T11:28:01.658Z,80.49
2022-10-27T11:29:01.602Z,80.58
2022-10-27T11:30:01.665Z,80.58
2022-10-27T11:31:01.573Z,80.58
2022-10-27T11:32:01.594Z,80.69
2022-10-27T11:33:01.563Z,80.69
2022-10-27T11:34:01.588Z,80.69
2022-10-27T11:35:01.578Z,80.69
2022-10-27T11:36:04.161Z,80.69
2022-10-27T11:37:02.531Z,80.79
2022-10-27T11:38:01.524Z,80.69
2022-10-27T11:39:01.516Z,80.69
2022-10-27T11:40:01.481Z,80.69
2022-10-27T11:41:01.549Z,80.69
2022-10-27T11:42:01.493Z,80.69
2022-10-27T11:43:01.480Z,80.79
2022-10-27T11:44:05.922Z,80.79
2022-10-27T11:45:01.424Z,80.79
2022-10-27T11:46:01.453Z,80.79
2022-10-27T11:47:01.439Z,80.89
2022-10-27T11:48:01.458Z,80.79
2022-10-27T11:49:01.400Z,80.89
2022-10-27T11:50:01.406Z,80.99
2022-10-27T11:51:01.374Z,80.95
2022-10-27T11:52:01.374Z,80.95
2022-10-27T11:53:01.349Z,80.95
2022-10-27T11:54:01.381Z,80.95
2022-10-27T11:55:01.384Z,80.95
2022-10-27T11:56:03.203Z,80.95
2022-10-27T11:57:07.305Z,80.95
2022-10-27T11:58:02.337Z,81.05
2022-10-27T11:59:01.301Z,80.95
2022-10-27T12:00:01.280Z,81.05
2022-10-27T12:01:01.316Z,81.05
2022-10-27T12:02:01.383Z,81.05
2022-10-27T12:03:01.262Z,81.05
2022-10-27T12:04:01.297Z,81.05
2022-10-27T12:05:01.244Z,81.05
2022-10-27T12:06:01.223Z,81.15
2022-10-27T12:07:01.238Z,81.26
2022-10-27T12:08:01.203Z,81.26
2022-10-27T12:09:01.209Z,81.26
2022-10-27T12:10:01.160Z,81.26
2022-10-27T12:11:01.145Z,81.35
2022-10-27T12:12:01.161Z,81.26
2022-10-27T12:13:01.131Z,81.15
2022-10-27T12:14:01.502Z,81.15
2022-10-27T12:15:01.091Z,81.15
2022-10-27T12:16:01.102Z,81.05
2022-10-27T12:17:01.093Z,81.15
2022-10-27T12:18:03.760Z,81.15
2022-10-27T12:19:02.087Z,81.15
2022-10-27T12:20:01.103Z,81.15
2022-10-27T12:21:01.049Z,81.15
2022-10-27T12:22:01.082Z,81.15
2022-10-27T12:23:01.040Z,81.15
2022-10-27T12:24:01.017Z,81.26
2022-10-27T12:25:01.011Z,81.26
2022-10-27T12:26:01.014Z,81.26
2022-10-27T12:27:00.976Z,81.26
2022-10-27T12:28:00.977Z,81.26
2022-10-27T12:29:00.983Z,81.26
2022-10-27T12:30:00.946Z,81.26
2022-10-27T12:31:01.182Z,81.26
2022-10-27T12:32:00.942Z,81.26
2022-10-27T12:33:00.920Z,81.26
2022-10-27T12:34:00.996Z,81.26
2022-10-27T12:35:01.051Z,81.26
2022-10-27T12:36:00.903Z,81.26
2022-10-27T12:37:00.908Z,81.26
2022-10-27T12:38:01.093Z,81.26
2022-10-27T12:39:00.847Z,81.26
2022-10-27T12:40:00.846Z,81.26
2022-10-27T12:41:00.825Z,81.12
2022-10-27T12:42:01.853Z,81.12
2022-10-27T12:43:00.808Z,81.21
2022-10-27T12:44:00.807Z,81.21
2022-10-27T12:45:00.783Z,81.12
2022-10-27T12:46:00.770Z,81.12
2022-10-27T12:47:00.759Z,81.12
2022-10-27T12:48:01.047Z,81.12
2022-10-27T12:49:00.730Z,81.12
2022-10-27T12:50:00.750Z,81.01
2022-10-27T12:51:00.729Z,81.01
2022-10-27T12:52:00.710Z,80.91
2022-10-27T12:53:00.740Z,80.91
2022-10-27T12:54:00.675Z,80.81
2022-10-27T12:55:00.662Z,80.91
2022-10-27T12:56:00.661Z,80.81
2022-10-27T12:57:00.645Z,80.81
2022-10-27T12:58:00.639Z,80.91
2022-10-27T12:59:00.672Z,80.81
2022-10-27T13:00:00.613Z,80.81
2022-10-27T13:01:00.630Z,80.81
2022-10-27T13:02:00.676Z,80.81
2022-10-27T13:03:00.576Z,80.81
2022-10-27T13:04:00.576Z,80.71
2022-10-27T13:05:00.560Z,80.71
2022-10-27T13:06:00.555Z,80.71
2022-10-27T13:07:00.629Z,80.71
2022-10-27T13:08:00.817Z,80.71
2022-10-27T13:09:00.515Z,80.71
2022-10-27T13:10:00.510Z,80.71
2022-10-27T13:11:00.494Z,80.71
2022-10-27T13:12:00.742Z,80.71